sensor_id;sensor_type;location;lat;lon;timestamp;pressure;altitude;pressure_sealevel;temperature;humidity
5062;BME280;2351;50.812;12.872;2023-01-28T00:00:25;98630.06;;;-1.71;100.00
5062;BME280;2351;50.812;12.872;2023-01-28T00:02:59;98628.28;;;-1.69;100.00
5062;BME280;2351;50.812;12.872;2023-01-28T00:05:30;98627.41;;;-1.68;100.00
5062;BME280;2351;50.812;12.872;2023-01-28T00:08:02;98623.84;;;-1.65;100.00
5062;BME280;2351;50.812;12.872;2023-01-28T00:10:35;98628.16;;;-1.64;100.00
5062;BME280;2351;50.812;12.872;2023-01-28T00:13:10;98630.81;;;-1.66;100.00
5062;BME280;2351;50.812;12.872;2023-01-28T00:15:43;98627.28;;;-1.65;100.00
5062;BME280;2351;50.812;12.872;2023-01-28T00:18:16;98623.09;;;-1.69;100.00
5062;BME280;2351;50.812;12.872;2023-01-28T00:20:55;98622.09;;;-1.65;100.00
5062;BME280;2351;50.812;12.872;2023-01-28T00:23:28;98629.09;;;-1.67;100.00
5062;BME280;2351;50.812;12.872;2023-01-28T00:26:03;98623.91;;;-1.67;100.00
5062;BME280;2351;50.812;12.872;2023-01-28T00:28:35;98627.28;;;-1.65;100.00
5062;BME280;2351;50.812;12.872;2023-01-28T00:31:07;98624.66;;;-1.63;100.00
5062;BME280;2351;50.812;12.872;2023-01-28T00:33:40;98628.91;;;-1.61;100.00
5062;BME280;2351;50.812;12.872;2023-01-28T00:36:13;98632.34;;;-1.59;100.00
5062;BME280;2351;50.812;12.872;2023-01-28T00:38:48;98626.31;;;-1.59;100.00
5062;BME280;2351;50.812;12.872;2023-01-28T00:41:22;98634.03;;;-1.58;100.00
5062;BME280;2351;50.812;12.872;2023-01-28T00:43:55;98629.72;;;-1.57;100.00
5062;BME280;2351;50.812;12.872;2023-01-28T00:46:27;98620.97;;;-1.55;100.00
5062;BME280;2351;50.812;12.872;2023-01-28T00:49:00;98627.00;;;-1.54;100.00
5062;BME280;2351;50.812;12.872;2023-01-28T00:51:32;98622.63;;;-1.52;100.00
5062;BME280;2351;50.812;12.872;2023-01-28T00:54:04;98628.72;;;-1.53;100.00
5062;BME280;2351;50.812;12.872;2023-01-28T00:56:36;98631.44;;;-1.58;100.00
5062;BME280;2351;50.812;12.872;2023-01-28T00:59:08;98635.81;;;-1.60;100.00
5062;BME280;2351;50.812;12.872;2023-01-28T01:01:39;98636.69;;;-1.59;100.00
5062;BME280;2351;50.812;12.872;2023-01-28T01:04:13;98636.88;;;-1.67;100.00
5062;BME280;2351;50.812;12.872;2023-01-28T01:06:55;98638.75;;;-1.72;100.00
5062;BME280;2351;50.812;12.872;2023-01-28T01:09:27;98637.16;;;-1.78;100.00
5062;BME280;2351;50.812;12.872;2023-01-28T01:11:59;98644.13;;;-1.80;100.00
5062;BME280;2351;50.812;12.872;2023-01-28T01:14:31;98641.63;;;-1.85;100.00
5062;BME280;2351;50.812;12.872;2023-01-28T01:17:03;98639.13;;;-1.88;100.00
5062;BME280;2351;50.812;12.872;2023-01-28T01:19:37;98650.50;;;-1.93;100.00
5062;BME280;2351;50.812;12.872;2023-01-28T01:22:09;98645.41;;;-1.98;100.00
5062;BME280;2351;50.812;12.872;2023-01-28T01:24:41;98652.31;;;-1.97;100.00
5062;BME280;2351;50.812;12.872;2023-01-28T01:27:12;98654.03;;;-1.96;100.00
5062;BME280;2351;50.812;12.872;2023-01-28T01:29:44;98656.72;;;-2.01;100.00
5062;BME280;2351;50.812;12.872;2023-01-28T01:32:16;98661.94;;;-2.01;100.00
5062;BME280;2351;50.812;12.872;2023-01-28T01:34:51;98654.91;;;-1.97;100.00
5062;BME280;2351;50.812;12.872;2023-01-28T01:37:22;98654.84;;;-1.95;100.00
5062;BME280;2351;50.812;12.872;2023-01-28T01:39:54;98654.03;;;-1.96;100.00
5062;BME280;2351;50.812;12.872;2023-01-28T01:42:26;98653.13;;;-1.95;100.00
5062;BME280;2351;50.812;12.872;2023-01-28T01:45:00;98656.69;;;-1.99;100.00
5062;BME280;2351;50.812;12.872;2023-01-28T01:47:38;98652.38;;;-2.00;100.00
5062;BME280;2351;50.812;12.872;2023-01-28T01:50:17;98659.34;;;-2.02;100.00
5062;BME280;2351;50.812;12.872;2023-01-28T01:52:56;98655.03;;;-2.03;100.00
5062;BME280;2351;50.812;12.872;2023-01-28T01:55:32;98650.72;;;-2.03;100.00
5062;BME280;2351;50.812;12.872;2023-01-28T01:58:07;98649.84;;;-2.02;100.00
5062;BME280;2351;50.812;12.872;2023-01-28T02:00:41;98646.25;;;-1.98;100.00
5062;BME280;2351;50.812;12.872;2023-01-28T02:03:15;98639.47;;;-2.02;100.00
5062;BME280;2351;50.812;12.872;2023-01-28T02:05:51;98648.97;;;-2.02;100.00
5062;BME280;2351;50.812;12.872;2023-01-28T02:08:23;98648.00;;;-1.98;100.00
5062;BME280;2351;50.812;12.872;2023-01-28T02:10:59;98642.81;;;-1.98;100.00
5062;BME280;2351;50.812;12.872;2023-01-28T02:13:35;98647.94;;;-1.95;100.00
5062;BME280;2351;50.812;12.872;2023-01-28T02:16:10;98655.75;;;-1.97;100.00
5062;BME280;2351;50.812;12.872;2023-01-28T02:18:42;98655.75;;;-1.97;100.00
5062;BME280;2351;50.812;12.872;2023-01-28T02:21:29;98647.88;;;-1.93;100.00
5062;BME280;2351;50.812;12.872;2023-01-28T02:24:33;98643.63;;;-1.96;100.00
5062;BME280;2351;50.812;12.872;2023-01-28T02:27:18;98639.38;;;-1.99;100.00
5062;BME280;2351;50.812;12.872;2023-01-28T02:29:56;98645.56;;;-2.04;100.00
5062;BME280;2351;50.812;12.872;2023-01-28T02:32:34;98647.25;;;-2.03;100.00
5062;BME280;2351;50.812;12.872;2023-01-28T02:37:45;98657.63;;;-2.03;100.00
5062;BME280;2351;50.812;12.872;2023-01-28T02:40:21;98661.19;;;-2.07;100.00
5062;BME280;2351;50.812;12.872;2023-01-28T02:42:57;98658.63;;;-2.09;100.00
5062;BME280;2351;50.812;12.872;2023-01-28T02:45:32;98655.09;;;-2.06;100.00
5062;BME280;2351;50.812;12.872;2023-01-28T02:48:21;98666.38;;;-2.07;100.00
5062;BME280;2351;50.812;12.872;2023-01-28T02:50:58;98664.75;;;-2.12;100.00
5062;BME280;2351;50.812;12.872;2023-01-28T02:53:36;98670.78;;;-2.11;100.00
5062;BME280;2351;50.812;12.872;2023-01-28T02:56:18;98676.72;;;-2.06;100.00
5062;BME280;2351;50.812;12.872;2023-01-28T02:59:00;98662.97;;;-2.09;100.00
5062;BME280;2351;50.812;12.872;2023-01-28T03:02:00;98667.31;;;-2.10;100.00
5062;BME280;2351;50.812;12.872;2023-01-28T03:04:37;98670.69;;;-2.06;100.00
5062;BME280;2351;50.812;12.872;2023-01-28T03:07:13;98675.03;;;-2.08;100.00
5062;BME280;2351;50.812;12.872;2023-01-28T03:09:47;98669.94;;;-2.12;100.00
5062;BME280;2351;50.812;12.872;2023-01-28T03:12:22;98675.97;;;-2.11;100.00
5062;BME280;2351;50.812;12.872;2023-01-28T03:15:14;98675.03;;;-2.08;100.00
5062;BME280;2351;50.812;12.872;2023-01-28T03:18:08;98670.75;;;-2.09;100.00
5062;BME280;2351;50.812;12.872;2023-01-28T03:21:04;98670.78;;;-2.11;100.00
5062;BME280;2351;50.812;12.872;2023-01-28T03:23:57;98683.13;;;-2.21;100.00
5062;BME280;2351;50.812;12.872;2023-01-28T03:26:53;98680.34;;;-2.13;100.00
5062;BME280;2351;50.812;12.872;2023-01-28T03:29:45;98683.81;;;-2.13;100.00
5062;BME280;2351;50.812;12.872;2023-01-28T03:32:35;98690.63;;;-2.08;100.00
5062;BME280;2351;50.812;12.872;2023-01-28T03:35:30;98688.91;;;-2.09;100.00
5062;BME280;2351;50.812;12.872;2023-01-28T03:38:21;98691.47;;;-2.08;100.00
5062;BME280;2351;50.812;12.872;2023-01-28T03:40:56;98693.31;;;-2.13;100.00
5062;BME280;2351;50.812;12.872;2023-01-28T03:43:30;98698.44;;;-2.10;100.00
5062;BME280;2351;50.812;12.872;2023-01-28T03:46:03;98693.31;;;-2.12;100.00
5062;BME280;2351;50.812;12.872;2023-01-28T03:48:36;98702.91;;;-2.17;100.00
5062;BME280;2351;50.812;12.872;2023-01-28T03:51:09;98702.13;;;-2.20;100.00
5062;BME280;2351;50.812;12.872;2023-01-28T03:53:41;98705.53;;;-2.18;100.00
5062;BME280;2351;50.812;12.872;2023-01-28T03:56:13;98701.34;;;-2.24;100.00
5062;BME280;2351;50.812;12.872;2023-01-28T03:58:47;98704.81;;;-2.25;100.00
5062;BME280;2351;50.812;12.872;2023-01-28T04:01:25;98710.00;;;-2.25;100.00
5062;BME280;2351;50.812;12.872;2023-01-28T04:03:57;98709.09;;;-2.22;100.00
5062;BME280;2351;50.812;12.872;2023-01-28T04:06:30;98707.34;;;-2.22;100.00
5062;BME280;2351;50.812;12.872;2023-01-28T04:09:02;98713.50;;;-2.26;100.00
5062;BME280;2351;50.812;12.872;2023-01-28T04:11:35;98719.63;;;-2.30;100.00
5062;BME280;2351;50.812;12.872;2023-01-28T04:14:06;98716.97;;;-2.27;100.00
5062;BME280;2351;50.812;12.872;2023-01-28T04:16:38;98717.13;;;-2.33;100.00
5062;BME280;2351;50.812;12.872;2023-01-28T04:19:10;98712.78;;;-2.33;100.00
5062;BME280;2351;50.812;12.872;2023-01-28T04:21:44;98712.94;;;-2.42;100.00
5062;BME280;2351;50.812;12.872;2023-01-28T04:24:16;98718.28;;;-2.48;100.00
5062;BME280;2351;50.812;12.872;2023-01-28T04:26:48;98727.66;;;-2.43;100.00
5062;BME280;2351;50.812;12.872;2023-01-28T04:29:20;98727.66;;;-2.43;100.00
5062;BME280;2351;50.812;12.872;2023-01-28T04:31:52;98726.09;;;-2.50;100.00
5062;BME280;2351;50.812;12.872;2023-01-28T04:34:23;98724.38;;;-2.51;100.00
5062;BME280;2351;50.812;12.872;2023-01-28T04:36:56;98722.59;;;-2.47;100.00
5062;BME280;2351;50.812;12.872;2023-01-28T04:39:28;98727.78;;;-2.47;100.00
5062;BME280;2351;50.812;12.872;2023-01-28T04:42:00;98731.25;;;-2.48;100.00
5062;BME280;2351;50.812;12.872;2023-01-28T04:44:31;98728.00;;;-2.58;100.00
5062;BME280;2351;50.812;12.872;2023-01-28T04:47:03;98735.06;;;-2.66;100.00
5062;BME280;2351;50.812;12.872;2023-01-28T04:49:35;98735.09;;;-2.68;100.00
5062;BME280;2351;50.812;12.872;2023-01-28T04:52:08;98739.47;;;-2.72;100.00
5062;BME280;2351;50.812;12.872;2023-01-28T04:54:40;98745.59;;;-2.76;100.00
5062;BME280;2351;50.812;12.872;2023-01-28T04:57:11;98744.75;;;-2.76;100.00
5062;BME280;2351;50.812;12.872;2023-01-28T04:59:43;98750.97;;;-2.85;100.00
5062;BME280;2351;50.812;12.872;2023-01-28T05:02:15;98759.53;;;-2.81;100.00
5062;BME280;2351;50.812;12.872;2023-01-28T05:04:46;98753.47;;;-2.80;100.00
5062;BME280;2351;50.812;12.872;2023-01-28T05:07:19;98756.09;;;-2.82;100.00
5062;BME280;2351;50.812;12.872;2023-01-28T05:09:51;98756.88;;;-2.77;100.00
5062;BME280;2351;50.812;12.872;2023-01-28T05:12:23;98762.94;;;-2.78;100.00
5062;BME280;2351;50.812;12.872;2023-01-28T05:14:54;98763.00;;;-2.81;100.00
5062;BME280;2351;50.812;12.872;2023-01-28T05:17:26;98766.41;;;-2.79;100.00
5062;BME280;2351;50.812;12.872;2023-01-28T05:19:58;98763.84;;;-2.80;100.00
5062;BME280;2351;50.812;12.872;2023-01-28T05:22:31;98767.34;;;-2.84;100.00
5062;BME280;2351;50.812;12.872;2023-01-28T05:25:04;98775.13;;;-2.83;100.00
5062;BME280;2351;50.812;12.872;2023-01-28T05:27:36;98773.41;;;-2.84;100.00
5062;BME280;2351;50.812;12.872;2023-01-28T05:30:09;98770.09;;;-2.92;100.00
5062;BME280;2351;50.812;12.872;2023-01-28T05:32:40;98775.41;;;-2.98;100.00
5062;BME280;2351;50.812;12.872;2023-01-28T05:35:12;98776.34;;;-3.04;100.00
5062;BME280;2351;50.812;12.872;2023-01-28T05:37:45;98778.16;;;-3.08;100.00
5062;BME280;2351;50.812;12.872;2023-01-28T05:40:17;98786.88;;;-3.13;100.00
5062;BME280;2351;50.812;12.872;2023-01-28T05:42:49;98780.78;;;-3.11;100.00
5062;BME280;2351;50.812;12.872;2023-01-28T05:45:21;98781.66;;;-3.10;100.00
5062;BME280;2351;50.812;12.872;2023-01-28T05:47:52;98790.31;;;-3.13;100.00
5062;BME280;2351;50.812;12.872;2023-01-28T05:50:24;98792.94;;;-3.16;100.00
5062;BME280;2351;50.812;12.872;2023-01-28T05:52:57;98788.59;;;-3.12;100.00
5062;BME280;2351;50.812;12.872;2023-01-28T05:55:29;98784.34;;;-3.18;100.00
5062;BME280;2351;50.812;12.872;2023-01-28T05:58:00;98787.84;;;-3.21;100.00
5062;BME280;2351;50.812;12.872;2023-01-28T06:00:32;98794.78;;;-3.21;100.00
5062;BME280;2351;50.812;12.872;2023-01-28T06:03:04;98793.13;;;-3.25;100.00
5062;BME280;2351;50.812;12.872;2023-01-28T06:05:36;98805.19;;;-3.24;100.00
5062;BME280;2351;50.812;12.872;2023-01-28T06:08:09;98805.19;;;-3.24;100.00
5062;BME280;2351;50.812;12.872;2023-01-28T06:10:41;98803.47;;;-3.25;100.00
5062;BME280;2351;50.812;12.872;2023-01-28T06:13:12;98808.72;;;-3.28;100.00
5062;BME280;2351;50.812;12.872;2023-01-28T06:15:44;98816.66;;;-3.41;100.00
5062;BME280;2351;50.812;12.872;2023-01-28T06:18:18;98819.25;;;-3.41;100.00
5062;BME280;2351;50.812;12.872;2023-01-28T06:20:50;98825.25;;;-3.37;100.00
5062;BME280;2351;50.812;12.872;2023-01-28T06:23:23;98826.19;;;-3.43;100.00
5062;BME280;2351;50.812;12.872;2023-01-28T06:25:56;98829.75;;;-3.50;100.00
5062;BME280;2351;50.812;12.872;2023-01-28T06:28:28;98827.16;;;-3.50;100.00
5062;BME280;2351;50.812;12.872;2023-01-28T06:30:59;98831.50;;;-3.52;100.00
5062;BME280;2351;50.812;12.872;2023-01-28T06:33:31;98829.88;;;-3.59;100.00
5062;BME280;2351;50.812;12.872;2023-01-28T06:36:03;98844.63;;;-3.66;100.00
5062;BME280;2351;50.812;12.872;2023-01-28T06:38:37;98842.03;;;-3.65;100.00
5062;BME280;2351;50.812;12.872;2023-01-28T06:41:09;98847.09;;;-3.57;100.00
5062;BME280;2351;50.812;12.872;2023-01-28T06:43:40;98852.31;;;-3.61;100.00
5062;BME280;2351;50.812;12.872;2023-01-28T06:46:12;98850.56;;;-3.59;100.00
5062;BME280;2351;50.812;12.872;2023-01-28T06:48:44;98859.38;;;-3.70;100.00
5062;BME280;2351;50.812;12.872;2023-01-28T06:51:15;98859.31;;;-3.67;100.00
5062;BME280;2351;50.812;12.872;2023-01-28T06:53:48;98862.75;;;-3.65;100.00
5062;BME280;2351;50.812;12.872;2023-01-28T06:56:20;98874.06;;;-3.73;100.00
5062;BME280;2351;50.812;12.872;2023-01-28T06:58:52;98868.03;;;-3.74;100.00
5062;BME280;2351;50.812;12.872;2023-01-28T07:01:24;98868.94;;;-3.76;100.00
5062;BME280;2351;50.812;12.872;2023-01-28T07:03:56;98868.03;;;-3.74;100.00
5062;BME280;2351;50.812;12.872;2023-01-28T07:06:27;98867.34;;;-3.87;100.00
5062;BME280;2351;50.812;12.872;2023-01-28T07:09:01;98870.03;;;-3.95;100.00
5062;BME280;2351;50.812;12.872;2023-01-28T07:11:32;98885.50;;;-3.91;100.00
5062;BME280;2351;50.812;12.872;2023-01-28T07:14:04;98882.16;;;-4.00;100.00
5062;BME280;2351;50.812;12.872;2023-01-28T07:16:36;98877.84;;;-3.99;100.00
5062;BME280;2351;50.812;12.872;2023-01-28T07:19:07;98885.50;;;-3.91;100.00
5062;BME280;2351;50.812;12.872;2023-01-28T07:21:39;98885.41;;;-3.85;100.00
5062;BME280;2351;50.812;12.872;2023-01-28T07:24:12;98883.66;;;-3.83;100.00
5062;BME280;2351;50.812;12.872;2023-01-28T07:26:46;98889.78;;;-3.89;100.00
5062;BME280;2351;50.812;12.872;2023-01-28T07:29:18;98893.28;;;-3.91;100.00
5062;BME280;2351;50.812;12.872;2023-01-28T07:31:49;98896.00;;;-4.04;100.00
5062;BME280;2351;50.812;12.872;2023-01-28T07:34:21;98884.78;;;-4.03;100.00
5062;BME280;2351;50.812;12.872;2023-01-28T07:36:54;98885.69;;;-4.07;100.00
5062;BME280;2351;50.812;12.872;2023-01-28T07:39:27;98894.34;;;-4.10;100.00
5062;BME280;2351;50.812;12.872;2023-01-28T07:41:59;98887.44;;;-4.09;100.00
5062;BME280;2351;50.812;12.872;2023-01-28T07:44:31;98889.19;;;-4.11;100.00
5062;BME280;2351;50.812;12.872;2023-01-28T07:47:03;98894.47;;;-4.20;100.00
5062;BME280;2351;50.812;12.872;2023-01-28T07:49:35;98889.22;;;-4.14;100.00
5062;BME280;2351;50.812;12.872;2023-01-28T07:52:09;98890.06;;;-4.14;100.00
5062;BME280;2351;50.812;12.872;2023-01-28T07:54:42;98893.63;;;-4.21;100.00
5062;BME280;2351;50.812;12.872;2023-01-28T07:57:13;98895.34;;;-4.20;100.00
5062;BME280;2351;50.812;12.872;2023-01-28T07:59:52;98897.88;;;-4.18;100.00
5062;BME280;2351;50.812;12.872;2023-01-28T08:02:24;98897.91;;;-4.21;100.00
5062;BME280;2351;50.812;12.872;2023-01-28T08:04:55;98910.88;;;-4.25;100.00
5062;BME280;2351;50.812;12.872;2023-01-28T08:07:28;98901.44;;;-4.29;100.00
5062;BME280;2351;50.812;12.872;2023-01-28T08:10:01;98905.84;;;-4.37;100.00
5062;BME280;2351;50.812;12.872;2023-01-28T08:12:33;98901.50;;;-4.32;100.00
5062;BME280;2351;50.812;12.872;2023-01-28T08:15:06;98912.66;;;-4.30;100.00
5062;BME280;2351;50.812;12.872;2023-01-28T08:17:38;98909.31;;;-4.41;100.00
5062;BME280;2351;50.812;12.872;2023-01-28T08:20:10;98917.00;;;-4.32;100.00
5062;BME280;2351;50.812;12.872;2023-01-28T08:22:43;98913.69;;;-4.48;100.00
5062;BME280;2351;50.812;12.872;2023-01-28T08:25:16;98918.75;;;-4.34;100.00
5062;BME280;2351;50.812;12.872;2023-01-28T08:27:48;98915.16;;;-4.20;100.00
5062;BME280;2351;50.812;12.872;2023-01-28T08:30:20;98920.38;;;-4.27;100.00
5062;BME280;2351;50.812;12.872;2023-01-28T08:32:54;98917.72;;;-4.20;100.00
5062;BME280;2351;50.812;12.872;2023-01-28T08:38:06;98923.56;;;-4.03;100.00
5062;BME280;2351;50.812;12.872;2023-01-28T08:40:39;98929.53;;;-3.96;100.00
5062;BME280;2351;50.812;12.872;2023-01-28T08:43:11;98922.56;;;-3.91;100.00
5062;BME280;2351;50.812;12.872;2023-01-28T08:45:43;98918.25;;;-3.87;100.00
5062;BME280;2351;50.812;12.872;2023-01-28T08:48:17;98931.06;;;-3.80;100.00
5062;BME280;2351;50.812;12.872;2023-01-28T08:50:48;98929.34;;;-3.79;100.00
5062;BME280;2351;50.812;12.872;2023-01-28T08:53:21;98925.03;;;-3.80;100.00
5062;BME280;2351;50.812;12.872;2023-01-28T08:55:54;98927.63;;;-3.80;100.00
5062;BME280;2351;50.812;12.872;2023-01-28T08:58:25;98937.34;;;-3.99;100.00
5062;BME280;2351;50.812;12.872;2023-01-28T09:00:57;98934.69;;;-3.96;100.00
5062;BME280;2351;50.812;12.872;2023-01-28T09:03:29;98930.41;;;-3.96;100.00
5062;BME280;2351;50.812;12.872;2023-01-28T09:06:01;98945.00;;;-3.91;100.00
5062;BME280;2351;50.812;12.872;2023-01-28T09:08:33;98942.31;;;-3.81;100.00
5062;BME280;2351;50.812;12.872;2023-01-28T09:11:06;98947.56;;;-3.88;100.00
5062;BME280;2351;50.812;12.872;2023-01-28T09:13:37;98952.97;;;-4.10;100.00
5062;BME280;2351;50.812;12.872;2023-01-28T09:16:09;98949.47;;;-4.06;100.00
5062;BME280;2351;50.812;12.872;2023-01-28T09:18:41;98941.66;;;-4.03;100.00
5062;BME280;2351;50.812;12.872;2023-01-28T09:21:13;98944.22;;;-4.00;100.00
5062;BME280;2351;50.812;12.872;2023-01-28T09:23:44;98950.16;;;-3.90;100.00
5062;BME280;2351;50.812;12.872;2023-01-28T09:26:17;98943.22;;;-3.85;100.00
5062;BME280;2351;50.812;12.872;2023-01-28T09:28:49;98950.75;;;-3.66;100.00
5062;BME280;2351;50.812;12.872;2023-01-28T09:31:21;98948.78;;;-3.49;100.00
5062;BME280;2351;50.812;12.872;2023-01-28T09:33:53;98952.25;;;-3.48;100.00
5062;BME280;2351;50.812;12.872;2023-01-28T09:36:26;98948.63;;;-3.35;100.00
5062;BME280;2351;50.812;12.872;2023-01-28T09:38:58;98948.63;;;-3.35;100.00
5062;BME280;2351;50.812;12.872;2023-01-28T09:41:36;98958.03;;;-3.27;100.00
5062;BME280;2351;50.812;12.872;2023-01-28T09:44:24;98956.53;;;-3.44;100.00
5062;BME280;2351;50.812;12.872;2023-01-28T09:47:00;98954.69;;;-3.39;100.00
5062;BME280;2351;50.812;12.872;2023-01-28T09:49:35;98955.53;;;-3.35;100.00
5062;BME280;2351;50.812;12.872;2023-01-28T09:52:12;98955.34;;;-3.21;100.00
5062;BME280;2351;50.812;12.872;2023-01-28T09:54:46;98955.25;;;-3.15;100.00
5062;BME280;2351;50.812;12.872;2023-01-28T09:57:21;98956.22;;;-3.22;100.00
5062;BME280;2351;50.812;12.872;2023-01-28T09:59:53;98952.84;;;-3.27;100.00
5062;BME280;2351;50.812;12.872;2023-01-28T10:02:36;98954.44;;;-3.19;100.00
5062;BME280;2351;50.812;12.872;2023-01-28T10:05:19;98960.38;;;-3.12;100.00
5062;BME280;2351;50.812;12.872;2023-01-28T10:08:02;98953.41;;;-3.07;100.00
5062;BME280;2351;50.812;12.872;2023-01-28T10:10:41;98952.56;;;-3.09;100.00
5062;BME280;2351;50.812;12.872;2023-01-28T10:13:27;98953.34;;;-3.00;100.00
5062;BME280;2351;50.812;12.872;2023-01-28T10:16:11;98955.19;;;-3.10;100.00
5062;BME280;2351;50.812;12.872;2023-01-28T10:18:49;98957.63;;;-3.01;100.00
5062;BME280;2351;50.812;12.872;2023-01-28T10:21:27;98958.34;;;-2.91;100.00
5062;BME280;2351;50.812;12.872;2023-01-28T10:24:04;98957.44;;;-2.87;100.00
5062;BME280;2351;50.812;12.872;2023-01-28T10:26:39;98959.94;;;-2.82;100.00
5062;BME280;2351;50.812;12.872;2023-01-28T10:29:16;98960.38;;;-3.10;96.13
5062;BME280;2351;50.812;12.872;2023-01-28T10:31:51;98960.34;;;-3.09;98.68
5062;BME280;2351;50.812;12.872;2023-01-28T10:34:24;98957.97;;;-3.24;94.21
5062;BME280;2351;50.812;12.872;2023-01-28T10:36:56;98970.81;;;-3.18;96.19
5062;BME280;2351;50.812;12.872;2023-01-28T10:39:28;98966.63;;;-3.27;93.78
5062;BME280;2351;50.812;12.872;2023-01-28T10:42:00;98969.22;;;-3.25;92.67
5062;BME280;2351;50.812;12.872;2023-01-28T10:44:37;98963.13;;;-3.21;93.33
5062;BME280;2351;50.812;12.872;2023-01-28T10:47:13;98963.94;;;-3.19;92.54
5062;BME280;2351;50.812;12.872;2023-01-28T10:49:52;98964.13;;;-3.31;92.31
5062;BME280;2351;50.812;12.872;2023-01-28T10:52:26;98971.72;;;-3.21;91.90
5062;BME280;2351;50.812;12.872;2023-01-28T10:54:59;98974.41;;;-3.25;92.04
5062;BME280;2351;50.812;12.872;2023-01-28T10:57:32;98976.06;;;-3.21;90.17
5062;BME280;2351;50.812;12.872;2023-01-28T11:00:22;98975.25;;;-3.25;90.25
5062;BME280;2351;50.812;12.872;2023-01-28T11:02:55;98976.88;;;-3.19;90.63
5062;BME280;2351;50.812;12.872;2023-01-28T11:05:28;98981.16;;;-3.15;90.86
5062;BME280;2351;50.812;12.872;2023-01-28T11:08:12;98983.72;;;-3.13;89.54
5062;BME280;2351;50.812;12.872;2023-01-28T11:10:46;98984.72;;;-3.22;88.52
5062;BME280;2351;50.812;12.872;2023-01-28T11:13:20;98982.94;;;-3.19;89.62
5062;BME280;2351;50.812;12.872;2023-01-28T11:15:57;98983.88;;;-3.26;87.74
5062;BME280;2351;50.812;12.872;2023-01-28T11:18:34;98983.78;;;-3.16;88.70
5062;BME280;2351;50.812;12.872;2023-01-28T11:21:14;98975.97;;;-3.15;88.49
5062;BME280;2351;50.812;12.872;2023-01-28T11:23:50;98980.41;;;-3.25;87.44
5062;BME280;2351;50.812;12.872;2023-01-28T11:26:25;98978.63;;;-3.20;88.63
5062;BME280;2351;50.812;12.872;2023-01-28T11:28:58;98977.88;;;-3.28;86.40
5062;BME280;2351;50.812;12.872;2023-01-28T11:31:42;98977.94;;;-3.31;85.89
5062;BME280;2351;50.812;12.872;2023-01-28T11:34:16;98981.31;;;-3.27;87.44
5062;BME280;2351;50.812;12.872;2023-01-28T11:36:50;98982.91;;;-3.15;87.64
5062;BME280;2351;50.812;12.872;2023-01-28T11:39:23;98978.59;;;-3.18;85.92
5062;BME280;2351;50.812;12.872;2023-01-28T11:42:11;98970.81;;;-3.18;85.91
5062;BME280;2351;50.812;12.872;2023-01-28T11:44:43;98967.28;;;-3.11;88.28
5062;BME280;2351;50.812;12.872;2023-01-28T11:47:36;98965.44;;;-3.04;87.78
5062;BME280;2351;50.812;12.872;2023-01-28T11:50:23;98970.63;;;-3.03;87.33
5062;BME280;2351;50.812;12.872;2023-01-28T11:53:10;98962.75;;;-2.96;88.42
5062;BME280;2351;50.812;12.872;2023-01-28T11:55:57;98964.38;;;-2.89;86.96
5062;BME280;2351;50.812;12.872;2023-01-28T11:58:37;98956.59;;;-2.89;87.52
5062;BME280;2351;50.812;12.872;2023-01-28T12:01:14;98961.81;;;-2.92;86.48
5062;BME280;2351;50.812;12.872;2023-01-28T12:04:05;98961.97;;;-3.01;86.42
5062;BME280;2351;50.812;12.872;2023-01-28T12:06:56;98962.75;;;-2.95;86.20
5062;BME280;2351;50.812;12.872;2023-01-28T12:09:34;98949.00;;;-3.00;86.25
5062;BME280;2351;50.812;12.872;2023-01-28T12:12:24;98966.25;;;-2.99;85.76
5062;BME280;2351;50.812;12.872;2023-01-28T12:15:16;98953.22;;;-2.94;86.32
5062;BME280;2351;50.812;12.872;2023-01-28T12:18:02;98942.81;;;-2.91;87.44
5062;BME280;2351;50.812;12.872;2023-01-28T12:20:47;98949.75;;;-2.93;85.89
5062;BME280;2351;50.812;12.872;2023-01-28T12:23:37;98944.56;;;-2.93;86.74
5062;BME280;2351;50.812;12.872;2023-01-28T12:26:17;98946.22;;;-2.89;86.94
5062;BME280;2351;50.812;12.872;2023-01-28T12:29:05;98939.38;;;-2.93;86.35
5062;BME280;2351;50.812;12.872;2023-01-28T12:31:50;98942.91;;;-2.97;85.97
5062;BME280;2351;50.812;12.872;2023-01-28T12:34:45;98934.31;;;-2.99;86.65
5062;BME280;2351;50.812;12.872;2023-01-28T12:37:29;98937.78;;;-3.02;85.83
5062;BME280;2351;50.812;12.872;2023-01-28T12:40:16;98947.34;;;-3.07;84.44
5062;BME280;2351;50.812;12.872;2023-01-28T12:42:51;98937.16;;;-3.16;85.27
5062;BME280;2351;50.812;12.872;2023-01-28T12:45:28;98936.28;;;-3.17;86.29
5062;BME280;2351;50.812;12.872;2023-01-28T12:48:08;98932.81;;;-3.16;85.86
5062;BME280;2351;50.812;12.872;2023-01-28T12:50:46;98929.38;;;-3.16;85.96
5062;BME280;2351;50.812;12.872;2023-01-28T12:53:26;98929.34;;;-3.15;85.27
5062;BME280;2351;50.812;12.872;2023-01-28T12:56:03;98927.78;;;-3.27;85.58
5062;BME280;2351;50.812;12.872;2023-01-28T12:58:44;98921.69;;;-3.23;86.31
5062;BME280;2351;50.812;12.872;2023-01-28T13:01:22;98922.44;;;-3.14;86.94
5062;BME280;2351;50.812;12.872;2023-01-28T13:04:02;98933.69;;;-3.17;85.71
5062;BME280;2351;50.812;12.872;2023-01-28T13:06:37;98937.13;;;-3.15;85.99
5062;BME280;2351;50.812;12.872;2023-01-28T13:09:15;98928.59;;;-3.22;86.36
5062;BME280;2351;50.812;12.872;2023-01-28T13:11:50;98931.97;;;-3.18;86.33
5062;BME280;2351;50.812;12.872;2023-01-28T13:14:27;98931.00;;;-3.11;86.69
5062;BME280;2351;50.812;12.872;2023-01-28T13:17:08;98942.13;;;-3.04;86.69
5062;BME280;2351;50.812;12.872;2023-01-28T13:19:40;98937.06;;;-3.10;85.50
5062;BME280;2351;50.812;12.872;2023-01-28T13:22:26;98940.47;;;-3.08;85.92
5062;BME280;2351;50.812;12.872;2023-01-28T13:25:18;98940.53;;;-3.11;85.27
5062;BME280;2351;50.812;12.872;2023-01-28T13:27:56;98943.97;;;-3.11;85.40
5062;BME280;2351;50.812;12.872;2023-01-28T13:30:30;98942.25;;;-3.10;84.61
5062;BME280;2351;50.812;12.872;2023-01-28T13:33:04;98934.47;;;-3.12;85.36
5062;BME280;2351;50.812;12.872;2023-01-28T13:35:38;98939.00;;;-3.26;83.80
5062;BME280;2351;50.812;12.872;2023-01-28T13:38:16;98939.97;;;-3.32;84.49
5062;BME280;2351;50.812;12.872;2023-01-28T13:40:56;98942.50;;;-3.29;84.78
5062;BME280;2351;50.812;12.872;2023-01-28T13:43:35;98939.81;;;-3.23;85.64
5062;BME280;2351;50.812;12.872;2023-01-28T13:46:09;98939.75;;;-3.18;85.16
5062;BME280;2351;50.812;12.872;2023-01-28T13:48:45;98945.75;;;-3.14;85.30
5062;BME280;2351;50.812;12.872;2023-01-28T13:51:21;98951.78;;;-3.12;85.11